Hermanos Serdan International Airport


Codes: MMPB/PBC
Name: Hermanos Serdan International Airport
City: Puebla
Country: Mexico
Elevation: 7361 ft.
Website:
Wikipedia:

Photos at Hermanos Serdan International Airport


   Photos courtesy of SpottingLog. You can add your own sightings and photos by signing up for a free trial today.



No photos found.

Weather at Hermanos Serdan International Airport


Time (UTC)DescriptionTempratureWindCloud coverageVisibilityPressureHumidity
16-Jun-2024 12:00Few Clouds15°C7 mph, NW22%10000m1014hPa71%
16-Jun-2024 15:00Clear Sky19°C7 mph, NE9%10000m1013hPa47%
16-Jun-2024 18:00Clear Sky26°C7 mph, NE0%10000m1010hPa23%
16-Jun-2024 21:00Clear Sky28°C7 mph, NE0%10000m1006hPa18%
17-Jun-2024 00:00Clear Sky25°C9 mph, NE9%10000m1005hPa30%
17-Jun-2024 03:00Scattered Clouds17°C9 mph, N39%10000m1012hPa59%
17-Jun-2024 06:00Scattered Clouds15°C9 mph, N31%10000m1014hPa72%
17-Jun-2024 09:00Broken Clouds13°C4 mph, N54%10000m1013hPa71%
17-Jun-2024 12:00Broken Clouds12°C7 mph, NW70%10000m1013hPa66%
17-Jun-2024 15:00Overcast Clouds21°C7 mph, NE100%10000m1011hPa34%
17-Jun-2024 18:00Overcast Clouds27°C9 mph, NE90%10000m1007hPa18%
17-Jun-2024 21:00Clear Sky29°C7 mph, NE9%10000m1003hPa15%
18-Jun-2024 00:00Scattered Clouds25°C9 mph, N26%10000m1004hPa30%
18-Jun-2024 03:00Broken Clouds17°C7 mph, NW66%10000m1011hPa59%
18-Jun-2024 06:00Broken Clouds15°C4 mph, NW67%10000m1012hPa68%
18-Jun-2024 09:00Scattered Clouds14°C4 mph, NW47%10000m1011hPa76%
18-Jun-2024 12:00Broken Clouds12°C4 mph, NW75%10000m1012hPa70%
18-Jun-2024 15:00Overcast Clouds20°C2 mph, NW100%10000m1010hPa35%
18-Jun-2024 18:00Overcast Clouds27°C4 mph, NE95%10000m1006hPa19%
18-Jun-2024 21:00Clear Sky29°C4 mph, N1%10000m1003hPa17%
19-Jun-2024 00:00Few Clouds26°C7 mph, N21%10000m1003hPa31%
19-Jun-2024 03:00Scattered Clouds18°C9 mph, NW32%10000m1010hPa57%
19-Jun-2024 06:00Scattered Clouds16°C7 mph, NW25%10000m1012hPa63%
19-Jun-2024 09:00Overcast Clouds14°C4 mph, NW96%10000m1011hPa57%
19-Jun-2024 12:00Overcast Clouds13°C4 mph, NW86%10000m1011hPa64%
19-Jun-2024 15:00Broken Clouds22°C7 mph, NE55%10000m1009hPa36%
19-Jun-2024 18:00Broken Clouds27°C9 mph, NE80%10000m1006hPa20%
19-Jun-2024 21:00Overcast Clouds29°C9 mph, NE100%10000m1002hPa18%
20-Jun-2024 00:00Overcast Clouds24°C11 mph, N100%10000m1004hPa37%
20-Jun-2024 03:00Overcast Clouds19°C11 mph, N98%10000m1009hPa59%
20-Jun-2024 06:00Overcast Clouds16°C7 mph, NW99%10000m1011hPa61%
20-Jun-2024 09:00Broken Clouds14°C4 mph, NW81%10000m1010hPa66%
20-Jun-2024 12:00Broken Clouds14°C7 mph, NW84%10000m1011hPa77%
20-Jun-2024 15:00Broken Clouds21°C9 mph, NE73%10000m1009hPa48%
20-Jun-2024 18:00Overcast Clouds26°C4 mph, NE87%10000m1006hPa34%
20-Jun-2024 21:00Light Rain21°C4 mph, S100%10000m1006hPa56%
21-Jun-2024 00:00Light Rain17°C4 mph, NW100%10000m1007hPa78%
21-Jun-2024 03:00Moderate Rain15°C9 mph, N100%10000m1011hPa90%
21-Jun-2024 06:00Light Rain16°C7 mph, N100%10000m1010hPa81%
21-Jun-2024 09:00Light Rain15°C7 mph, N100%10000m1009hPa91%